Aérodrome :
LOGIN :

S'inscrire | Disclaimer

   EN    FR    IT 

 










Légende :    VFR   VFR Marginal   IFR   IFR Intensif   IFR Très Intensif
Visi : 
Plafond : 
>= 8 km
>= 3000ft
5 à 8 km
1000 à 3000 ft
1500m à 5 km
500 à 1000 ft
800 à 1500m
200 à 500 ft
< 800m
< 200 ft
Symboles :   Orages  Brouillard  Fortes neiges  Fortes précipitations  Vent > 20 kt
SIGMETs :   Divers  Orages  Givrage  Turbulence  Onde Orograph.  Cendres Volcan.







- Altitude de l'aérodrome : 257 ft
- Code IATA : MAN
- Voir les cartes d'approche


EGCC - Manchester

DERNIER METAR :
  • 221750Z AUTO 23009KT 9999 OVC036 07/04 Q1015 NOSIG

METARs EXPIRÉS :
  • 221720Z AUTO 23008KT 9999 OVC035 07/04 Q1014 NOSIG
  • 221650Z AUTO 25008KT 9999 OVC037 07/04 Q1014 NOSIG
  • 221620Z AUTO 26012KT 9999 OVC039 07/04 Q1014
  • 221550Z AUTO 26014KT 9999 BKN040 OVC047 08/04 Q1013 NOSIG
  • 221520Z AUTO 26013KT 9999 FEW022 OVC043 08/04 Q1013 NOSIG

TAF TAF EGCC
Valide du 22 à 18h jusqu'au 24 à 00h UTC


221702Z 2218/2324 23010KT 9999 SCT040
BECMG 2222/2301 16011KT
TEMPO 2304/2324 18016G26KT
TEMPO 2305/2315 5000 -RADZ BKN009
PROB30
TEMPO 2305/2311 3000 RADZ BKN004
ATIS : +44 161 499 2324
Pas de NOTAMs connus pour ce terrain.



MET'MAP, la Météo Aéronautique d'un coup d'oeil ! - Copyright ORBIFLY Décembre 2007 - Disclaimer

ORBIFLY MET'MAP TEAM :

Programmation & Développement : Alexandra Zaïnal
Conception & Développement : Baudouin d'Aumeries
Co-Programmation & Développement : Marc-Olivier Méhu
Soutien technique & logistique : Manuel Goepfert

Contact : metmap@orbifly.com




SOURCES & CREDITS :

   NOAA